RYR84KM EGGW-LEMI
Flight info
| Callsign | RYR84KM |
|---|---|
| Flight time | N/A |
| Altitude | 37000 |
| Route | RODNI N27 ICTAM Q63 CPT UN859 SOPIL DCT BALAN DCT LMG DCT PIMQO DCT AGN DCT ANETO N860 VLC L34 ALT |
| Aircraft | B738/M-SDE3FGILRWY/SB1 |
Departure
| Time | N/A |
|---|---|
| Airport | London Luton Airport (EGGW) |
Arrival
| Time | 2026-04-26 21:21 |
|---|---|
| Airport | Region of Murcia International Airport (LEMI) |
| Time | Latitude | Longitude | Altitude | Speed | Heading |
|---|---|---|---|---|---|
| 2026-04-26 20:11 | 44.61792 | 1.05513 | 39133 ft | 472 kts | 192° |
| 2026-04-26 20:11 | 44.58595 | 1.04705 | 39130 ft | 472 kts | 192° |
| 2026-04-26 20:12 | 44.48906 | 1.02263 | 39136 ft | 470 kts | 192° |
| 2026-04-26 20:12 | 44.42437 | 1.00636 | 39134 ft | 471 kts | 192° |
| 2026-04-26 20:13 | 44.35994 | 0.99020 | 39128 ft | 471 kts | 192° |
| 2026-04-26 20:13 | 44.29587 | 0.97414 | 39134 ft | 472 kts | 192° |
| 2026-04-26 20:14 | 44.23124 | 0.95799 | 39136 ft | 473 kts | 192° |
| 2026-04-26 20:14 | 44.16696 | 0.94199 | 39137 ft | 470 kts | 192° |
| 2026-04-26 20:15 | 44.10258 | 0.92601 | 39138 ft | 470 kts | 192° |
| 2026-04-26 20:15 | 44.03807 | 0.91002 | 39137 ft | 471 kts | 191° |
| 2026-04-26 20:16 | 43.97391 | 0.89414 | 39138 ft | 471 kts | 191° |
| 2026-04-26 20:16 | 43.90907 | 0.87813 | 39140 ft | 471 kts | 191° |
| 2026-04-26 20:17 | 43.84473 | 0.86190 | 39139 ft | 472 kts | 192° |
| 2026-04-26 20:17 | 43.78007 | 0.84459 | 39145 ft | 471 kts | 192° |
| 2026-04-26 20:18 | 43.71608 | 0.82726 | 39147 ft | 472 kts | 192° |
| 2026-04-26 20:18 | 43.65180 | 0.80996 | 39155 ft | 471 kts | 192° |
| 2026-04-26 20:19 | 43.58730 | 0.79270 | 39151 ft | 474 kts | 192° |
| 2026-04-26 20:19 | 43.52228 | 0.77538 | 39152 ft | 475 kts | 192° |
| 2026-04-26 20:20 | 43.45735 | 0.75817 | 39155 ft | 473 kts | 192° |
| 2026-04-26 20:20 | 43.39290 | 0.74113 | 39157 ft | 474 kts | 192° |
| 2026-04-26 20:21 | 43.32819 | 0.72406 | 39165 ft | 473 kts | 192° |
| 2026-04-26 20:21 | 43.26374 | 0.70711 | 39168 ft | 474 kts | 192° |
| 2026-04-26 20:22 | 43.19883 | 0.69007 | 39172 ft | 476 kts | 192° |
| 2026-04-26 20:22 | 43.13369 | 0.67300 | 39182 ft | 476 kts | 192° |
| 2026-04-26 20:23 | 43.06891 | 0.65607 | 39184 ft | 475 kts | 192° |
| 2026-04-26 20:23 | 43.00407 | 0.63916 | 39190 ft | 475 kts | 191° |
| 2026-04-26 20:24 | 42.93929 | 0.62230 | 39200 ft | 474 kts | 191° |
| 2026-04-26 20:24 | 42.87434 | 0.60543 | 39214 ft | 475 kts | 191° |
| 2026-04-26 20:25 | 42.80959 | 0.58866 | 39233 ft | 476 kts | 191° |
| 2026-04-26 20:25 | 42.74457 | 0.57185 | 39247 ft | 475 kts | 191° |
| 2026-04-26 20:26 | 42.67959 | 0.55509 | 39240 ft | 475 kts | 191° |
| 2026-04-26 20:26 | 42.61487 | 0.53843 | 39229 ft | 474 kts | 191° |
| 2026-04-26 20:27 | 42.54990 | 0.52175 | 39215 ft | 475 kts | 191° |
| 2026-04-26 20:27 | 42.48526 | 0.50519 | 39205 ft | 474 kts | 191° |
| 2026-04-26 20:28 | 42.42020 | 0.48855 | 39183 ft | 475 kts | 191° |
| 2026-04-26 20:28 | 42.35511 | 0.47194 | 39179 ft | 475 kts | 191° |
| 2026-04-26 20:29 | 42.29014 | 0.45538 | 39167 ft | 474 kts | 191° |
| 2026-04-26 20:29 | 42.22525 | 0.43888 | 39164 ft | 474 kts | 191° |
| 2026-04-26 20:30 | 42.16034 | 0.42240 | 39162 ft | 475 kts | 191° |
| 2026-04-26 20:30 | 42.09531 | 0.40593 | 39161 ft | 474 kts | 191° |
| 2026-04-26 20:31 | 42.03034 | 0.38951 | 39153 ft | 475 kts | 191° |
| 2026-04-26 20:31 | 41.96511 | 0.37306 | 39143 ft | 474 kts | 191° |
| 2026-04-26 20:32 | 41.90029 | 0.35675 | 39139 ft | 473 kts | 191° |
| 2026-04-26 20:32 | 41.83540 | 0.34046 | 39135 ft | 474 kts | 191° |
| 2026-04-26 20:33 | 41.77065 | 0.32424 | 39131 ft | 475 kts | 191° |
| 2026-04-26 20:33 | 41.70608 | 0.30810 | 39127 ft | 475 kts | 191° |
| 2026-04-26 20:34 | 41.64120 | 0.29170 | 39106 ft | 475 kts | 191° |
| 2026-04-26 20:34 | 41.57641 | 0.27539 | 39131 ft | 473 kts | 191° |
| 2026-04-26 20:35 | 41.51136 | 0.25934 | 39132 ft | 473 kts | 191° |
| 2026-04-26 20:35 | 41.44643 | 0.24337 | 39123 ft | 473 kts | 191° |
| 2026-04-26 20:36 | 41.38147 | 0.22737 | 39124 ft | 474 kts | 191° |
| 2026-04-26 20:36 | 41.31659 | 0.21138 | 39123 ft | 475 kts | 191° |
| 2026-04-26 20:37 | 41.25133 | 0.19531 | 39118 ft | 474 kts | 191° |
| 2026-04-26 20:37 | 41.18647 | 0.17935 | 39114 ft | 473 kts | 191° |
| 2026-04-26 20:38 | 41.12201 | 0.16299 | 39120 ft | 472 kts | 193° |
| 2026-04-26 20:38 | 41.05871 | 0.14017 | 39120 ft | 472 kts | 198° |
| 2026-04-26 20:39 | 40.99602 | 0.11396 | 39134 ft | 473 kts | 199° |
| 2026-04-26 20:39 | 40.93359 | 0.08768 | 39131 ft | 473 kts | 198° |
| 2026-04-26 20:40 | 40.87040 | 0.06154 | 39142 ft | 474 kts | 198° |
| 2026-04-26 20:40 | 40.80753 | 0.03597 | 39144 ft | 473 kts | 198° |
| 2026-04-26 20:41 | 40.74452 | 0.01061 | 39161 ft | 472 kts | 198° |
| 2026-04-26 20:41 | 40.68145 | -0.01461 | 39164 ft | 472 kts | 198° |
| 2026-04-26 20:42 | 40.61832 | -0.03976 | 39168 ft | 472 kts | 198° |
| 2026-04-26 20:42 | 40.55485 | -0.06500 | 39189 ft | 474 kts | 198° |
| 2026-04-26 20:43 | 40.49144 | -0.09017 | 39184 ft | 474 kts | 198° |
| 2026-04-26 20:43 | 40.42833 | -0.11517 | 39188 ft | 475 kts | 198° |
| 2026-04-26 20:44 | 40.36520 | -0.14013 | 39179 ft | 475 kts | 198° |
| 2026-04-26 20:44 | 40.30141 | -0.16530 | 39184 ft | 474 kts | 198° |
| 2026-04-26 20:45 | 40.23811 | -0.19023 | 39193 ft | 473 kts | 198° |
| 2026-04-26 20:45 | 40.17486 | -0.21509 | 39172 ft | 474 kts | 198° |
| 2026-04-26 20:46 | 40.11159 | -0.23990 | 39172 ft | 474 kts | 198° |
| 2026-04-26 20:46 | 40.04863 | -0.26455 | 39176 ft | 475 kts | 198° |
| 2026-04-26 20:47 | 39.98488 | -0.28946 | 39156 ft | 476 kts | 198° |
| 2026-04-26 20:47 | 39.92113 | -0.31430 | 39161 ft | 474 kts | 198° |
| 2026-04-26 20:48 | 39.85791 | -0.33888 | 39169 ft | 474 kts | 198° |
| 2026-04-26 20:48 | 39.79456 | -0.36349 | 39171 ft | 475 kts | 198° |
| 2026-04-26 20:49 | 39.73117 | -0.38807 | 39142 ft | 474 kts | 198° |
| 2026-04-26 20:49 | 39.66776 | -0.41262 | 39147 ft | 475 kts | 198° |
| 2026-04-26 20:50 | 39.60412 | -0.43721 | 39155 ft | 476 kts | 198° |
| 2026-04-26 20:50 | 39.54082 | -0.46161 | 39162 ft | 475 kts | 198° |
| 2026-04-26 20:51 | 39.47678 | -0.48250 | 39140 ft | 475 kts | 191° |
| 2026-04-26 20:51 | 39.41064 | -0.49183 | 39150 ft | 477 kts | 185° |
| 2026-04-26 20:52 | 39.34431 | -0.49597 | 39153 ft | 477 kts | 183° |
| 2026-04-26 20:52 | 39.27832 | -0.49941 | 39151 ft | 477 kts | 183° |
| 2026-04-26 20:53 | 39.21210 | -0.50336 | 39133 ft | 477 kts | 184° |
| 2026-04-26 20:53 | 39.14579 | -0.50776 | 39143 ft | 477 kts | 184° |
| 2026-04-26 20:54 | 39.07962 | -0.51239 | 39144 ft | 477 kts | 184° |
| 2026-04-26 20:54 | 39.01312 | -0.51714 | 39143 ft | 477 kts | 184° |
| 2026-04-26 20:55 | 38.94684 | -0.52190 | 39147 ft | 478 kts | 184° |
| 2026-04-26 20:55 | 38.88036 | -0.52666 | 39145 ft | 478 kts | 184° |
| 2026-04-26 20:56 | 38.81376 | -0.53142 | 39179 ft | 478 kts | 184° |
| 2026-04-26 20:56 | 38.74698 | -0.53619 | 39184 ft | 477 kts | 184° |
| 2026-04-26 20:57 | 38.68005 | -0.54095 | 39177 ft | 478 kts | 184° |
| 2026-04-26 20:57 | 38.61404 | -0.54565 | 39158 ft | 478 kts | 184° |
| 2026-04-26 20:58 | 38.54736 | -0.55037 | 39144 ft | 478 kts | 184° |
| 2026-04-26 20:58 | 38.48095 | -0.55507 | 39141 ft | 479 kts | 184° |
| 2026-04-26 20:59 | 38.41478 | -0.55975 | 38702 ft | 474 kts | 184° |
| 2026-04-26 20:59 | 38.38191 | -0.56207 | 38202 ft | 471 kts | 184° |
| 2026-04-26 20:59 | 38.34949 | -0.56436 | 37601 ft | 470 kts | 184° |
| 2026-04-26 20:59 | 38.31690 | -0.56666 | 36951 ft | 470 kts | 184° |
| 2026-04-26 21:00 | 38.28428 | -0.56896 | 36220 ft | 471 kts | 184° |
| 2026-04-26 21:00 | 38.25164 | -0.57062 | 35612 ft | 472 kts | 181° |
| 2026-04-26 21:00 | 38.21877 | -0.57043 | 34911 ft | 475 kts | 179° |
| 2026-04-26 21:00 | 38.18574 | -0.56902 | 34054 ft | 480 kts | 177° |
| 2026-04-26 21:01 | 38.15250 | -0.56702 | 33108 ft | 483 kts | 177° |
| 2026-04-26 21:01 | 38.11893 | -0.56481 | 32198 ft | 484 kts | 176° |
| 2026-04-26 21:01 | 38.08529 | -0.56262 | 31288 ft | 485 kts | 176° |
| 2026-04-26 21:01 | 38.05141 | -0.56051 | 30355 ft | 486 kts | 176° |
| 2026-04-26 21:02 | 38.01801 | -0.55856 | 29391 ft | 487 kts | 176° |
| 2026-04-26 21:02 | 37.98414 | -0.55668 | 28388 ft | 488 kts | 177° |
| 2026-04-26 21:02 | 37.95062 | -0.55492 | 27584 ft | 484 kts | 177° |
| 2026-04-26 21:02 | 37.91699 | -0.55322 | 27077 ft | 475 kts | 177° |
| 2026-04-26 21:03 | 37.88419 | -0.55161 | 26490 ft | 468 kts | 177° |
| 2026-04-26 21:03 | 37.85210 | -0.55005 | 25884 ft | 462 kts | 178° |
| 2026-04-26 21:03 | 37.82007 | -0.54851 | 25271 ft | 456 kts | 178° |
| 2026-04-26 21:03 | 37.78889 | -0.54702 | 24666 ft | 451 kts | 178° |
| 2026-04-26 21:04 | 37.75776 | -0.54554 | 24064 ft | 446 kts | 178° |
| 2026-04-26 21:04 | 37.72687 | -0.54406 | 23465 ft | 441 kts | 178° |
| 2026-04-26 21:04 | 37.69632 | -0.54260 | 22875 ft | 437 kts | 178° |
| 2026-04-26 21:04 | 37.66607 | -0.54117 | 22282 ft | 432 kts | 178° |
| 2026-04-26 21:05 | 37.63647 | -0.53976 | 21700 ft | 428 kts | 178° |
| 2026-04-26 21:05 | 37.60672 | -0.53835 | 21094 ft | 424 kts | 177° |
| 2026-04-26 21:05 | 37.57733 | -0.53695 | 20501 ft | 420 kts | 177° |
| 2026-04-26 21:05 | 37.54851 | -0.53558 | 19928 ft | 417 kts | 177° |
| 2026-04-26 21:06 | 37.51960 | -0.53421 | 19336 ft | 413 kts | 177° |
| 2026-04-26 21:06 | 37.49099 | -0.53292 | 18745 ft | 410 kts | 178° |
| 2026-04-26 21:06 | 37.46295 | -0.53732 | 18169 ft | 413 kts | 197° |
| 2026-04-26 21:06 | 37.43772 | -0.55427 | 17682 ft | 412 kts | 220° |
| 2026-04-26 21:07 | 37.41956 | -0.58152 | 17169 ft | 405 kts | 242° |
| 2026-04-26 21:07 | 37.41110 | -0.61469 | 16600 ft | 398 kts | 265° |
| 2026-04-26 21:07 | 37.41072 | -0.64884 | 16067 ft | 391 kts | 274° |
| 2026-04-26 21:07 | 37.41104 | -0.68273 | 15507 ft | 387 kts | 269° |
| 2026-04-26 21:08 | 37.40824 | -0.71613 | 14925 ft | 385 kts | 261° |
| 2026-04-26 21:08 | 37.40303 | -0.74848 | 14333 ft | 382 kts | 259° |
| 2026-04-26 21:08 | 37.39806 | -0.78114 | 13742 ft | 378 kts | 262° |
| 2026-04-26 21:08 | 37.39542 | -0.81368 | 13170 ft | 373 kts | 269° |
| 2026-04-26 21:09 | 37.39676 | -0.84585 | 12691 ft | 363 kts | 281° |
| 2026-04-26 21:09 | 37.40435 | -0.87494 | 12237 ft | 345 kts | 295° |
| 2026-04-26 21:09 | 37.41506 | -0.90131 | 11693 ft | 332 kts | 299° |
| 2026-04-26 21:09 | 37.42609 | -0.92586 | 11220 ft | 319 kts | 299° |
| 2026-04-26 21:10 | 37.43679 | -0.94962 | 10818 ft | 306 kts | 298° |
| 2026-04-26 21:10 | 37.44691 | -0.97277 | 10406 ft | 295 kts | 297° |
| 2026-04-26 21:10 | 37.45622 | -0.99475 | 10127 ft | 281 kts | 296° |
| 2026-04-26 21:10 | 37.46514 | -1.01624 | 9774 ft | 273 kts | 296° |
| 2026-04-26 21:11 | 37.47388 | -1.03756 | 9380 ft | 274 kts | 296° |
| 2026-04-26 21:11 | 37.48245 | -1.05854 | 9032 ft | 273 kts | 296° |
| 2026-04-26 21:11 | 37.49109 | -1.07969 | 8683 ft | 272 kts | 296° |
| 2026-04-26 21:11 | 37.49973 | -1.10082 | 8333 ft | 271 kts | 296° |
| 2026-04-26 21:12 | 37.50835 | -1.12191 | 7992 ft | 270 kts | 297° |
| 2026-04-26 21:12 | 37.51691 | -1.14284 | 7648 ft | 270 kts | 297° |
| 2026-04-26 21:12 | 37.52548 | -1.16382 | 7294 ft | 269 kts | 297° |
| 2026-04-26 21:12 | 37.53406 | -1.18484 | 6948 ft | 269 kts | 298° |
| 2026-04-26 21:13 | 37.54246 | -1.20545 | 6615 ft | 268 kts | 298° |
| 2026-04-26 21:13 | 37.55098 | -1.22633 | 6268 ft | 267 kts | 298° |
| 2026-04-26 21:13 | 37.55950 | -1.24724 | 5897 ft | 268 kts | 298° |
| 2026-04-26 21:13 | 37.56803 | -1.26816 | 5421 ft | 273 kts | 298° |
| 2026-04-26 21:14 | 37.57666 | -1.28936 | 5167 ft | 267 kts | 299° |
| 2026-04-26 21:14 | 37.58493 | -1.30975 | 5090 ft | 257 kts | 299° |
| 2026-04-26 21:14 | 37.59310 | -1.32980 | 5014 ft | 256 kts | 300° |
| 2026-04-26 21:14 | 37.60259 | -1.34849 | 4924 ft | 255 kts | 313° |
| 2026-04-26 21:15 | 37.61667 | -1.36110 | 4833 ft | 249 kts | 346° |
| 2026-04-26 21:15 | 37.63370 | -1.36171 | 4620 ft | 245 kts | 18° |
| 2026-04-26 21:15 | 37.64822 | -1.35141 | 4317 ft | 238 kts | 45° |
| 2026-04-26 21:15 | 37.65892 | -1.33604 | 4107 ft | 232 kts | 53° |
| 2026-04-26 21:16 | 37.66781 | -1.31932 | 3919 ft | 225 kts | 62° |
| 2026-04-26 21:16 | 37.67488 | -1.30214 | 3752 ft | 219 kts | 64° |
| 2026-04-26 21:16 | 37.68157 | -1.28495 | 3585 ft | 214 kts | 64° |
| 2026-04-26 21:16 | 37.68971 | -1.26974 | 3363 ft | 211 kts | 48° |
| 2026-04-26 21:17 | 37.70011 | -1.25679 | 3156 ft | 208 kts | 44° |
| 2026-04-26 21:17 | 37.71060 | -1.24438 | 2987 ft | 202 kts | 44° |
| 2026-04-26 21:17 | 37.71991 | -1.23212 | 2971 ft | 185 kts | 49° |
| 2026-04-26 21:17 | 37.72845 | -1.22028 | 2820 ft | 178 kts | 46° |
| 2026-04-26 21:18 | 37.73708 | -1.20924 | 2556 ft | 177 kts | 48° |
| 2026-04-26 21:18 | 37.74564 | -1.19820 | 2314 ft | 175 kts | 47° |
| 2026-04-26 21:18 | 37.75424 | -1.18743 | 1986 ft | 171 kts | 43° |
| 2026-04-26 21:18 | 37.76222 | -1.17742 | 1787 ft | 155 kts | 47° |
| 2026-04-26 21:19 | 37.76941 | -1.16814 | 1554 ft | 141 kts | 44° |
| 2026-04-26 21:19 | 37.77625 | -1.15956 | 1240 ft | 139 kts | 46° |
| 2026-04-26 21:19 | 37.78313 | -1.15058 | 1016 ft | 145 kts | 46° |
| 2026-04-26 21:19 | 37.79014 | -1.14144 | 807 ft | 143 kts | 46° |
| 2026-04-26 21:20 | 37.79704 | -1.13255 | 643 ft | 138 kts | 45° |
| 2026-04-26 21:20 | 37.80287 | -1.12505 | 635 ft | 102 kts | 45° |
| 2026-04-26 21:20 | 37.80741 | -1.11922 | 633 ft | 82 kts | 46° |
| 2026-04-26 21:20 | 37.81087 | -1.11467 | 634 ft | 56 kts | 46° |
| 2026-04-26 21:21 | 37.81235 | -1.11289 | 636 ft | 8 kts | 5° |
| 2026-04-26 21:21 | 37.81280 | -1.11331 | 637 ft | 12 kts | 322° |
| 2026-04-26 21:21 | 37.81327 | -1.11464 | 639 ft | 24 kts | 243° |
| 2026-04-26 21:21 | 37.81180 | -1.11661 | 639 ft | 34 kts | 224° |
| 2026-04-26 21:22 | 37.81012 | -1.11884 | 637 ft | 34 kts | 225° |
| 2026-04-26 21:22 | 37.80842 | -1.12096 | 638 ft | 34 kts | 227° |
| 2026-04-26 21:22 | 37.80680 | -1.12307 | 639 ft | 32 kts | 224° |
| 2026-04-26 21:23 | 37.80400 | -1.12678 | 643 ft | 18 kts | 249° |
| 2026-04-26 21:23 | 37.80452 | -1.12795 | 647 ft | 13 kts | 303° |
| 2026-04-26 21:23 | 37.80428 | -1.12884 | 650 ft | 10 kts | 226° |
| 2026-04-26 21:23 | 37.80380 | -1.12945 | 650 ft | 10 kts | 225° |
| 2026-04-26 21:24 | 37.80323 | -1.13010 | 650 ft | 9 kts | 225° |
| 2026-04-26 21:24 | 37.80335 | -1.13046 | 651 ft | 2 kts | 321° |
| 2026-04-26 21:24 | 37.80349 | -1.13063 | 652 ft | 3 kts | 315° |
| 2026-04-26 21:24 | 37.80368 | -1.13085 | 654 ft | 3 kts | 315° |
| 2026-04-26 21:25 | 37.80371 | -1.13089 | 654 ft | 0 kts | 317° |
| 2026-04-26 21:25 | 37.80371 | -1.13090 | 654 ft | 0 kts | 317° |
| 2026-04-26 21:25 | 37.80372 | -1.13091 | 654 ft | 0 kts | 316° |